Airfield :
LOGIN :

Register | Disclaimer

   EN    FR    IT 

 










Legend :    VFR   Marginal VFR   IFR   Intensive IFR   Very Intensive IFR
Visi :
Ceiling :
>= 8 km
>= 3000ft
5 to 8 km
1000 to 3000 ft
1500m to 5 km
500 to 1000 ft
800 to 1500m
200 to 500 ft
< 800m
< 200 ft
Symbols :   Thunderstorms  Fog  Heavy snow  Heavy precipitations  Wind > 20 kt
SIGMETs :     Misc.  Thunderstorms  Icing  Turbulence  Mountain Waves  Volcanic Ashes






- Airport Elevation : 32 ft
- IATA code : LKZ


EGUL - RAF Lakenheath

CURRENT METAR :
  • 171956Z AUTO 14003KT 9999 FEW040 BKN055 18/13 A2993 RMK AO2 SLP139 T01810127 TSNO $

EXPIRED METARs :
  • 171856Z AUTO 00000KT 9999 BKN055 18/12 A2991 RMK AO2 SLP132 T01840119 $
  • 171756Z AUTO 00000KT 9999 BKN055 18/13 A2990 RMK AO2 SLP128 T01810130 10217 20181 55002 $

TAF AMD TAF EGUL
Valid from the 17 at 17:00 until the 18 at 19:00 UTC


171700Z 1717/1819 22012KT 9999 BKN020 QNH2989INS
BECMG 1719/1720 19006KT 8000 BR SCT030 QNH2990INS
BECMG 1722/1723 18006KT 5000 BR FEW005 SCT030 QNH2991INS
BECMG 1807/1808 18009KT 8000 BR BKN005 BKN030 QNH2992INS
BECMG 1811/1812 16012KT 9999 NSW BKN030 QNH2993INS TX20/1717Z TN12/1803Z LAST NO AMDS AFT 1717 NEXT 2005



MET'MAP, your aeronautical weather chart ! - Copyright ORBIFLY December 2007 - Disclaimer

ORBIFLY MET'MAP TEAM :

Programming & Development : Alexandra Zaïnal
Concept & original design : Baudouin d'Aumeries
Assistance for programming : Marc-Olivier Méhu
Technical & hardware support : Manuel Goepfert

Contact : metmap@orbifly.com




SOURCES & CREDITS :

   NOAA